createdAt,value
2019-05-21T00:00:04.526Z,1005.28
2019-05-21T00:10:03.557Z,1005.27
2019-05-21T00:20:03.531Z,1005.36
2019-05-21T00:30:04.644Z,1005.45
2019-05-21T00:40:03.822Z,1005.54
2019-05-21T01:00:09.743Z,1005.46
2019-05-21T01:20:04.251Z,1005.52
2019-05-21T01:30:04.365Z,1005.61
2019-05-21T01:40:05.508Z,1005.75
2019-05-21T01:50:09.908Z,1005.75
2019-05-21T02:00:04.101Z,1005.94
2019-05-21T02:10:03.755Z,1006.03
2019-05-21T02:20:03.557Z,1006.08
2019-05-21T02:30:05.493Z,1006.17
2019-05-21T02:50:04.176Z,1006.38
2019-05-21T03:00:04.332Z,1006.40
2019-05-21T03:10:10.019Z,1006.53
2019-05-21T03:20:04.039Z,1006.64
2019-05-21T03:30:06.166Z,1006.77
2019-05-21T03:40:03.425Z,1006.75
2019-05-21T03:50:11.611Z,1006.90
2019-05-21T04:00:11.157Z,1006.99
2019-05-21T04:10:08.185Z,1007.09
2019-05-21T04:20:03.156Z,1007.11
2019-05-21T04:30:11.676Z,1007.21
2019-05-21T05:00:10.729Z,1007.52
2019-05-21T05:10:03.041Z,1007.63
2019-05-21T05:20:03.784Z,1007.53
2019-05-21T05:30:04.314Z,1007.93
2019-05-21T05:40:04.175Z,1007.85
2019-05-21T05:50:04.493Z,1007.95
2019-05-21T06:00:03.965Z,1008.00
2019-05-21T06:10:03.338Z,1008.22
2019-05-21T06:20:03.706Z,1008.37
2019-05-21T06:30:04.297Z,1008.40
2019-05-21T06:40:03.464Z,1008.76
2019-05-21T06:50:03.294Z,1008.92
2019-05-21T07:00:03.703Z,1008.87
2019-05-21T07:10:04.695Z,1009.05
2019-05-21T07:20:03.632Z,1009.10
2019-05-21T07:30:04.353Z,1009.23
2019-05-21T07:40:03.124Z,1009.37
2019-05-21T07:50:09.902Z,1009.50
2019-05-21T08:00:04.821Z,1009.63
2019-05-21T08:10:03.563Z,1009.61
2019-05-21T08:20:11.734Z,1009.77
2019-05-21T08:30:04.305Z,1009.86
2019-05-21T08:40:03.376Z,1010.04
2019-05-21T08:50:02.810Z,1010.00
2019-05-21T09:00:05.093Z,1010.02
2019-05-21T09:10:03.536Z,1010.05
2019-05-21T09:20:03.545Z,1010.13
2019-05-21T09:30:04.007Z,1010.21
2019-05-21T09:40:03.329Z,1010.24
2019-05-21T09:50:04.665Z,1010.29
2019-05-21T10:00:05.086Z,1010.24
2019-05-21T10:10:03.124Z,1010.25
2019-05-21T10:20:03.230Z,1010.37
2019-05-21T10:30:04.650Z,1010.39
2019-05-21T10:40:04.256Z,1010.33
2019-05-21T10:50:03.194Z,1010.61
2019-05-21T11:00:03.672Z,1010.44
2019-05-21T11:10:03.540Z,1010.59
2019-05-21T11:20:03.310Z,1010.62
2019-05-21T11:30:04.428Z,1010.81
2019-05-21T11:40:03.339Z,1010.80
2019-05-21T11:50:02.847Z,1010.91
2019-05-21T12:00:03.977Z,1010.73
2019-05-21T12:10:03.941Z,1010.93
2019-05-21T12:20:03.127Z,1011.02
2019-05-21T12:30:03.350Z,1011.12
2019-05-21T12:40:03.487Z,1011.23
2019-05-21T12:50:02.906Z,1011.27
2019-05-21T13:00:04.091Z,1011.29
2019-05-21T13:10:02.866Z,1011.55
2019-05-21T13:20:05.544Z,1011.73
2019-05-21T13:30:04.530Z,1011.77
2019-05-21T13:40:04.089Z,1011.89
2019-05-21T13:50:03.394Z,1011.92
2019-05-21T14:00:04.142Z,1011.86
2019-05-21T14:10:21.983Z,1011.95
2019-05-21T14:20:02.957Z,1012.08
2019-05-21T14:30:03.876Z,1012.05
2019-05-21T14:40:05.308Z,1012.31
2019-05-21T14:50:03.438Z,1012.42
2019-05-21T15:00:04.090Z,1012.54
2019-05-21T15:10:03.536Z,1012.46
2019-05-21T15:20:02.920Z,1012.64
2019-05-21T15:30:04.425Z,1012.57
2019-05-21T15:40:02.818Z,1012.70
2019-05-21T15:50:03.285Z,1012.75
2019-05-21T16:00:03.652Z,1012.83
2019-05-21T16:10:03.353Z,1012.83
2019-05-21T16:20:03.051Z,1013.00
2019-05-21T16:30:04.120Z,1013.16
2019-05-21T16:40:03.057Z,1013.18
2019-05-21T16:50:03.495Z,1013.39
2019-05-21T17:00:03.275Z,1013.43
2019-05-21T17:10:05.164Z,1013.58
2019-05-21T17:20:04.038Z,1013.65
2019-05-21T17:30:03.928Z,1013.70
2019-05-21T17:40:07.401Z,1013.78
2019-05-21T17:50:03.440Z,1013.89
2019-05-21T18:00:03.758Z,1013.97
2019-05-21T18:10:03.405Z,1014.09
2019-05-21T18:20:02.978Z,1014.13
2019-05-21T18:30:05.415Z,1014.28
2019-05-21T18:40:03.241Z,1014.50
2019-05-21T18:50:03.253Z,1014.66
2019-05-21T19:00:04.320Z,1014.81
2019-05-21T19:10:02.790Z,1014.93
2019-05-21T19:20:02.698Z,1015.14
2019-05-21T19:30:04.340Z,1015.17
2019-05-21T19:40:03.374Z,1015.43
2019-05-21T19:50:03.120Z,1015.58
2019-05-21T20:00:04.279Z,1015.64
2019-05-21T20:10:02.992Z,1015.72
2019-05-21T20:20:03.121Z,1015.82
2019-05-21T20:30:13.867Z,1015.78
2019-05-21T20:40:03.175Z,1015.92
2019-05-21T20:50:03.015Z,1015.93
2019-05-21T21:00:03.966Z,1016.02
2019-05-21T21:10:03.604Z,1016.05
2019-05-21T21:20:03.771Z,1016.03
2019-05-21T21:30:04.361Z,1016.15
2019-05-21T21:40:03.274Z,1016.21
2019-05-21T21:50:03.321Z,1016.26
2019-05-21T22:00:04.287Z,1016.28
2019-05-21T22:10:02.893Z,1016.36
2019-05-21T22:20:03.125Z,1016.32
2019-05-21T22:30:04.247Z,1016.35
2019-05-21T22:40:03.645Z,1016.45
2019-05-21T22:50:03.652Z,1016.45
2019-05-21T23:00:04.977Z,1016.52
2019-05-21T23:10:03.153Z,1016.52
2019-05-21T23:20:03.016Z,1016.48
2019-05-21T23:30:03.474Z,1016.49
2019-05-21T23:40:03.120Z,1016.59
2019-05-21T23:50:02.982Z,1016.53
